createdAt,value
2017-04-26T00:00:35.313Z,91.00
2017-04-26T00:01:35.560Z,91.10
2017-04-26T00:02:35.077Z,91.20
2017-04-26T00:03:34.861Z,91.30
2017-04-26T00:04:34.322Z,91.50
2017-04-26T00:05:34.581Z,91.60
2017-04-26T00:06:34.029Z,91.70
2017-04-26T00:07:34.201Z,91.70
2017-04-26T00:08:33.653Z,91.60
2017-04-26T00:09:33.249Z,91.20
2017-04-26T00:17:29.552Z,91.60
2017-04-26T00:18:29.922Z,91.70
2017-04-26T00:19:29.747Z,91.80
2017-04-26T00:20:29.466Z,91.90
2017-04-26T00:21:29.976Z,92.00
2017-04-26T00:22:30.667Z,92.00
2017-04-26T00:23:30.130Z,92.00
2017-04-26T00:24:29.620Z,92.20
2017-04-26T00:25:29.087Z,92.10
2017-04-26T00:26:29.295Z,92.20
2017-04-26T00:27:29.599Z,92.30
2017-04-26T00:28:29.163Z,92.40
2017-04-26T00:29:28.664Z,92.40
2017-04-26T00:30:28.164Z,92.40
2017-04-26T00:31:27.619Z,92.40
2017-04-26T00:32:27.072Z,92.50
2017-04-26T00:33:26.572Z,92.50
2017-04-26T00:34:26.780Z,92.70
2017-04-26T00:35:26.253Z,92.60
2017-04-26T00:36:25.720Z,92.70
2017-04-26T00:37:25.235Z,92.70
2017-04-26T00:38:24.743Z,92.80
2017-04-26T00:39:24.569Z,92.80
2017-04-26T00:40:24.785Z,92.70
2017-04-26T00:41:25.005Z,92.70
2017-04-26T00:42:24.453Z,92.80
2017-04-26T00:43:24.007Z,92.90
2017-04-26T00:44:23.469Z,92.90
2017-04-26T00:45:22.972Z,92.80
2017-04-26T00:46:23.162Z,92.80
2017-04-26T00:47:22.627Z,92.80
2017-04-26T00:48:22.164Z,92.80
2017-04-26T00:49:21.662Z,92.70
2017-04-26T00:50:22.348Z,92.80
2017-04-26T00:51:21.886Z,92.70
2017-04-26T00:52:21.368Z,92.80
2017-04-26T00:53:20.876Z,92.70
2017-04-26T00:54:21.102Z,92.70
2017-04-26T00:55:21.543Z,92.80
2017-04-26T00:56:21.152Z,92.80
2017-04-26T00:57:20.651Z,92.90
2017-04-26T00:58:20.177Z,92.90
2017-04-26T00:59:19.644Z,93.00
2017-04-26T01:00:19.197Z,93.00
2017-04-26T01:01:18.766Z,93.00
2017-04-26T01:02:18.285Z,93.00
2017-04-26T01:03:18.490Z,92.90
2017-04-26T01:04:18.037Z,93.00
2017-04-26T01:05:17.539Z,93.00
2017-04-26T01:06:17.028Z,93.10
2017-04-26T01:07:16.661Z,93.10
2017-04-26T01:10:15.584Z,93.20
2017-04-26T01:11:15.832Z,93.10
2017-04-26T01:12:15.326Z,93.10
2017-04-26T01:13:14.853Z,93.10
2017-04-26T01:14:14.370Z,93.00
2017-04-26T01:15:20.003Z,93.00
2017-04-26T01:16:19.518Z,93.10
2017-04-26T01:17:20.872Z,93.30
2017-04-26T01:18:20.656Z,93.40
2017-04-26T01:19:20.322Z,93.50
2017-04-26T01:20:19.954Z,93.60
2017-04-26T01:21:19.400Z,93.60
2017-04-26T01:22:19.735Z,93.50
2017-04-26T01:23:19.252Z,93.40
2017-04-26T01:24:18.793Z,93.40
2017-04-26T01:25:18.231Z,93.40
2017-04-26T01:26:18.424Z,93.50
2017-04-26T01:27:18.683Z,93.50
2017-04-26T01:28:18.568Z,93.50
2017-04-26T01:29:18.069Z,93.40
2017-04-26T01:30:17.556Z,93.50
2017-04-26T01:31:16.961Z,93.60
2017-04-26T01:32:16.392Z,93.70
2017-04-26T01:33:15.839Z,93.70
2017-04-26T01:34:15.243Z,93.70
2017-04-26T01:35:14.763Z,93.70
2017-04-26T01:36:15.009Z,93.70
2017-04-26T01:37:14.433Z,93.70
2017-04-26T01:38:13.983Z,93.70
2017-04-26T01:39:13.509Z,93.80
2017-04-26T01:40:13.811Z,93.90
2017-04-26T01:41:14.064Z,94.00
2017-04-26T01:42:13.536Z,94.10
2017-04-26T01:43:13.025Z,94.20
2017-04-26T01:44:13.272Z,93.90
2017-04-26T01:45:12.726Z,93.80
2017-04-26T01:46:12.395Z,93.70
2017-04-26T01:47:14.438Z,93.80
2017-04-26T01:48:15.929Z,93.80
2017-04-26T01:49:15.424Z,93.80
2017-04-26T01:50:14.887Z,93.80
2017-04-26T01:51:14.381Z,93.90
2017-04-26T01:52:13.856Z,93.90
2017-04-26T01:53:13.305Z,94.00
2017-04-26T01:54:12.841Z,94.00
2017-04-26T01:55:12.293Z,93.90
2017-04-26T01:56:11.782Z,93.90
2017-04-26T01:57:12.206Z,94.10
2017-04-26T01:58:11.701Z,94.10
2017-04-26T01:59:11.164Z,94.30
2017-04-26T02:00:10.677Z,94.30
2017-04-26T02:01:10.188Z,94.30
2017-04-26T02:02:09.812Z,94.30
2017-04-26T02:03:09.443Z,94.30
2017-04-26T02:04:08.948Z,94.20
2017-04-26T02:05:09.191Z,94.00
2017-04-26T02:06:08.821Z,94.10
2017-04-26T02:07:08.272Z,93.90
2017-04-26T02:08:07.790Z,93.70
2017-04-26T02:09:07.408Z,93.60
2017-04-26T02:10:06.934Z,93.70
2017-04-26T02:11:06.437Z,93.70
2017-04-26T02:12:06.714Z,93.60
2017-04-26T02:13:06.245Z,93.60
2017-04-26T02:14:06.503Z,93.60
2017-04-26T02:15:06.009Z,93.60
2017-04-26T02:16:05.456Z,93.60
2017-04-26T02:17:04.945Z,93.60
2017-04-26T02:18:05.156Z,93.80
2017-04-26T02:19:05.492Z,93.50
2017-04-26T02:20:05.088Z,93.50
2017-04-26T02:21:04.585Z,93.40
2017-04-26T02:22:04.072Z,93.50
2017-04-26T02:23:03.544Z,93.40
2017-04-26T02:24:02.972Z,93.40
2017-04-26T02:25:02.984Z,93.40
2017-04-26T02:26:02.488Z,93.20
2017-04-26T02:27:02.060Z,93.10
2017-04-26T02:28:01.542Z,93.30
2017-04-26T02:29:01.849Z,93.40
2017-04-26T02:30:02.063Z,93.30
2017-04-26T02:31:02.297Z,92.90
2017-04-26T02:32:01.816Z,92.80
2017-04-26T02:33:01.312Z,92.70
2017-04-26T02:34:00.800Z,92.70
2017-04-26T02:35:00.298Z,92.70
2017-04-26T02:35:59.896Z,93.00
2017-04-26T02:36:59.396Z,92.70
2017-04-26T02:37:58.909Z,92.60
2017-04-26T02:38:58.401Z,92.60
2017-04-26T02:39:57.877Z,92.60
2017-04-26T02:40:57.370Z,92.70
2017-04-26T02:41:57.099Z,92.60
2017-04-26T02:42:56.601Z,92.60
2017-04-26T02:43:56.064Z,92.80
2017-04-26T02:44:55.551Z,92.80
2017-04-26T02:45:55.009Z,93.00
2017-04-26T02:46:55.329Z,93.00
2017-04-26T02:47:54.974Z,93.20
2017-04-26T02:48:55.169Z,93.20
2017-04-26T02:49:54.652Z,93.10
2017-04-26T02:50:55.225Z,93.10
2017-04-26T02:51:54.688Z,93.00
2017-04-26T02:52:54.230Z,93.10
2017-04-26T02:53:53.772Z,93.20
2017-04-26T02:54:53.233Z,93.20
2017-04-26T02:55:52.724Z,93.40
2017-04-26T02:56:52.899Z,93.20
2017-04-26T02:58:52.252Z,93.60
2017-04-26T02:59:51.752Z,93.50
2017-04-26T03:00:51.224Z,93.50
2017-04-26T03:01:57.293Z,93.60
2017-04-26T03:02:56.737Z,93.70
2017-04-26T03:03:57.385Z,93.70
2017-04-26T03:04:56.935Z,93.70
2017-04-26T03:05:57.194Z,93.50
2017-04-26T03:06:57.380Z,93.60
2017-04-26T03:07:56.851Z,93.60
2017-04-26T03:08:56.287Z,93.80
2017-04-26T03:09:55.866Z,93.70
2017-04-26T03:10:55.407Z,93.90
2017-04-26T03:11:54.953Z,94.00
2017-04-26T03:12:55.037Z,94.10
2017-04-26T03:13:54.561Z,94.20
2017-04-26T03:14:54.008Z,94.00
2017-04-26T03:15:53.818Z,94.10
2017-04-26T03:16:53.436Z,94.10
2017-04-26T03:17:52.941Z,94.20
2017-04-26T03:18:52.436Z,94.30
2017-04-26T03:19:52.022Z,94.30
2017-04-26T03:20:51.517Z,94.50
2017-04-26T03:21:51.274Z,94.60
2017-04-26T03:22:50.741Z,94.70
2017-04-26T03:23:50.932Z,94.90
2017-04-26T03:24:50.415Z,94.80
2017-04-26T03:25:49.886Z,94.70
2017-04-26T03:26:49.407Z,94.70
2017-04-26T03:27:49.971Z,94.80
2017-04-26T03:28:50.152Z,94.70
2017-04-26T03:29:51.511Z,94.60
2017-04-26T03:30:51.684Z,94.60
2017-04-26T03:31:51.187Z,94.60
2017-04-26T03:32:51.921Z,94.60
2017-04-26T03:33:58.994Z,94.50
2017-04-26T03:34:58.443Z,94.40
2017-04-26T03:35:57.886Z,94.50
2017-04-26T03:36:58.189Z,94.60
2017-04-26T03:37:57.724Z,94.50
2017-04-26T03:38:58.417Z,94.50
2017-04-26T03:39:57.905Z,94.50
2017-04-26T03:40:57.396Z,94.30
2017-04-26T03:41:57.004Z,94.30
2017-04-26T03:42:57.310Z,94.30
2017-04-26T03:43:56.813Z,94.30
2017-04-26T03:44:56.308Z,94.40
2017-04-26T03:45:55.784Z,94.50
2017-04-26T03:46:55.302Z,94.40
2017-04-26T03:47:55.507Z,94.30
2017-04-26T03:48:55.266Z,94.30
2017-04-26T03:49:54.739Z,94.30
2017-04-26T03:50:54.230Z,94.40
2017-04-26T03:51:53.728Z,94.40
2017-04-26T03:52:53.208Z,94.40
2017-04-26T03:53:52.652Z,94.40
2017-04-26T03:54:52.265Z,94.30
2017-04-26T03:55:51.809Z,94.40
2017-04-26T03:56:51.576Z,94.50
2017-04-26T03:57:51.035Z,94.60
2017-04-26T03:58:50.572Z,94.60
2017-04-26T03:59:50.791Z,94.50
2017-04-26T04:00:51.152Z,94.50
2017-04-26T04:01:50.660Z,94.50
2017-04-26T04:02:50.119Z,94.50
2017-04-26T04:03:49.575Z,94.50
2017-04-26T04:04:49.019Z,94.40
2017-04-26T04:05:48.541Z,94.50
2017-04-26T04:06:48.144Z,94.40
2017-04-26T04:08:47.286Z,94.40
2017-04-26T04:09:46.772Z,94.40
2017-04-26T04:10:47.049Z,94.70
2017-04-26T04:11:46.783Z,94.40
2017-04-26T04:12:47.315Z,94.40
2017-04-26T04:13:46.764Z,94.50
2017-04-26T04:14:46.324Z,94.50
2017-04-26T04:15:45.932Z,94.50
2017-04-26T04:16:45.456Z,94.50
2017-04-26T04:17:44.954Z,94.50
2017-04-26T04:18:44.698Z,94.50
2017-04-26T04:19:44.159Z,94.50
2017-04-26T04:20:44.361Z,94.50
2017-04-26T04:21:43.853Z,94.50
2017-04-26T04:22:43.346Z,94.50
2017-04-26T04:23:42.833Z,94.40
2017-04-26T04:24:42.358Z,94.40
2017-04-26T04:25:43.165Z,94.50
2017-04-26T04:26:42.722Z,94.40
2017-04-26T04:27:42.236Z,94.40
2017-04-26T04:28:41.708Z,94.60
2017-04-26T04:29:41.136Z,94.50
2017-04-26T04:30:40.784Z,94.70
2017-04-26T04:31:40.225Z,94.80
2017-04-26T04:32:39.732Z,94.90
2017-04-26T04:33:39.179Z,95.00
2017-04-26T04:34:38.632Z,95.30
2017-04-26T04:35:38.861Z,95.50
2017-04-26T04:36:38.858Z,95.80
2017-04-26T04:37:38.306Z,96.00
2017-04-26T04:38:37.993Z,96.20
2017-04-26T04:39:37.484Z,96.20
2017-04-26T04:40:36.977Z,96.30
2017-04-26T04:41:36.544Z,96.60
2017-04-26T04:42:36.556Z,96.90
2017-04-26T04:43:36.032Z,97.00
2017-04-26T04:44:36.248Z,97.20
2017-04-26T04:45:36.449Z,97.40
2017-04-26T04:46:36.661Z,97.60
2017-04-26T04:47:36.898Z,97.70
2017-04-26T04:48:36.401Z,97.80
2017-04-26T04:49:39.520Z,97.90
2017-04-26T04:50:39.080Z,97.90
2017-04-26T04:51:38.542Z,97.90
2017-04-26T04:52:38.146Z,98.00
2017-04-26T04:53:37.638Z,97.60
2017-04-26T04:54:37.074Z,97.50
2017-04-26T04:55:36.563Z,97.10
2017-04-26T04:56:36.224Z,96.70
2017-04-26T04:57:36.459Z,96.80
2017-04-26T04:58:36.042Z,96.90
2017-04-26T04:59:35.500Z,96.70
2017-04-26T05:00:36.821Z,96.50
2017-04-26T05:01:37.072Z,96.50
2017-04-26T05:02:37.056Z,96.70
2017-04-26T05:03:36.573Z,96.50
2017-04-26T05:04:37.790Z,96.10
2017-04-26T05:05:37.358Z,96.10
2017-04-26T05:06:37.622Z,95.90
2017-04-26T05:07:37.921Z,96.20
2017-04-26T05:08:38.759Z,96.30
2017-04-26T05:09:39.849Z,96.20
2017-04-26T05:10:39.895Z,96.10
2017-04-26T05:11:39.373Z,96.40
2017-04-26T05:12:38.885Z,96.50
2017-04-26T05:13:39.268Z,96.40
2017-04-26T05:14:38.712Z,96.10
2017-04-26T05:15:38.152Z,96.00
2017-04-26T05:17:37.543Z,95.90
2017-04-26T05:18:37.095Z,96.10
2017-04-26T05:19:37.104Z,96.40
2017-04-26T05:20:36.592Z,96.60
2017-04-26T05:21:36.137Z,96.60
2017-04-26T05:22:35.945Z,96.50
2017-04-26T05:23:35.430Z,95.90
2017-04-26T05:24:34.904Z,95.60
2017-04-26T05:25:34.591Z,95.40
2017-04-26T05:26:34.074Z,95.30
2017-04-26T05:27:33.682Z,95.40
2017-04-26T05:28:33.153Z,95.80
2017-04-26T05:29:33.631Z,96.00
2017-04-26T05:30:33.090Z,95.80
2017-04-26T05:31:32.589Z,95.60
2017-04-26T05:32:35.401Z,95.40
2017-04-26T05:33:35.092Z,95.10
2017-04-26T05:34:34.613Z,94.90
2017-04-26T05:35:34.286Z,95.00
2017-04-26T05:36:34.076Z,95.00
2017-04-26T05:37:33.591Z,94.70
2017-04-26T05:38:33.930Z,94.60
2017-04-26T05:39:33.419Z,94.70
2017-04-26T05:40:32.871Z,94.80
2017-04-26T05:41:32.353Z,95.00
2017-04-26T05:42:32.155Z,95.20
2017-04-26T05:43:31.641Z,95.30
2017-04-26T05:44:31.162Z,95.40
2017-04-26T05:45:31.385Z,95.80
2017-04-26T05:46:31.682Z,95.60
2017-04-26T05:47:31.154Z,95.30
2017-04-26T05:48:30.618Z,94.80
2017-04-26T05:49:30.812Z,94.60
2017-04-26T05:50:30.324Z,94.50
2017-04-26T05:51:30.540Z,94.20
2017-04-26T05:52:30.786Z,94.10
2017-04-26T05:53:30.278Z,94.30
2017-04-26T05:54:29.714Z,94.50
2017-04-26T05:55:29.201Z,95.00
2017-04-26T05:56:28.663Z,95.10
2017-04-26T05:57:28.147Z,95.10
2017-04-26T05:58:27.726Z,94.60
2017-04-26T05:59:27.269Z,94.90
2017-04-26T06:00:28.130Z,95.40
2017-04-26T06:01:27.567Z,95.50
2017-04-26T06:02:27.104Z,95.40
2017-04-26T06:03:27.347Z,95.30
2017-04-26T06:04:27.591Z,95.40
2017-04-26T06:05:27.083Z,95.50
2017-04-26T06:06:26.551Z,95.10
2017-04-26T06:07:26.729Z,94.70
2017-04-26T06:08:26.213Z,94.30
2017-04-26T06:09:26.184Z,94.30
2017-04-26T06:10:25.665Z,94.30
2017-04-26T06:11:25.128Z,94.40
2017-04-26T06:12:24.632Z,94.20
2017-04-26T06:13:24.062Z,94.00
2017-04-26T06:14:23.559Z,93.80
2017-04-26T06:15:23.447Z,94.00
2017-04-26T06:16:22.928Z,94.00
2017-04-26T06:17:23.136Z,93.90
2017-04-26T06:18:23.344Z,94.20
2017-04-26T06:19:23.559Z,94.40
2017-04-26T06:20:23.885Z,95.10
2017-04-26T06:21:23.332Z,95.20
2017-04-26T06:22:22.798Z,95.10
2017-04-26T06:23:22.253Z,94.80
2017-04-26T06:24:22.447Z,94.50
2017-04-26T06:25:21.919Z,93.90
2017-04-26T06:26:21.430Z,93.50
2017-04-26T06:27:20.852Z,93.70
2017-04-26T06:28:21.008Z,93.20
2017-04-26T06:29:20.435Z,93.10
2017-04-26T06:30:19.900Z,92.90
2017-04-26T06:31:19.359Z,92.90
2017-04-26T06:32:19.157Z,93.20
2017-04-26T06:33:18.584Z,93.00
2017-04-26T06:34:18.085Z,92.70
2017-04-26T06:35:17.548Z,92.40
2017-04-26T06:36:16.972Z,92.40
2017-04-26T06:37:16.428Z,92.20
2017-04-26T06:38:16.223Z,92.60
2017-04-26T06:39:15.694Z,92.70
2017-04-26T06:40:15.229Z,92.10
2017-04-26T06:41:14.728Z,92.10
2017-04-26T06:42:14.197Z,92.00
2017-04-26T06:43:13.625Z,91.80
2017-04-26T06:44:13.328Z,91.60
2017-04-26T06:45:12.747Z,91.40
2017-04-26T06:46:12.204Z,91.40
2017-04-26T06:47:11.654Z,91.10
2017-04-26T06:48:11.856Z,91.10
2017-04-26T06:49:11.346Z,91.50
2017-04-26T06:50:11.039Z,91.20
2017-04-26T06:51:10.471Z,91.10
2017-04-26T06:52:09.960Z,91.20
2017-04-26T06:53:10.145Z,91.30
2017-04-26T06:54:09.578Z,91.40
2017-04-26T06:55:09.015Z,91.40
2017-04-26T06:56:08.920Z,91.50
2017-04-26T06:57:08.356Z,91.30
2017-04-26T06:58:08.531Z,91.30
2017-04-26T06:59:07.967Z,91.30
2017-04-26T07:00:07.476Z,91.20
2017-04-26T07:01:06.912Z,91.00
2017-04-26T07:02:06.548Z,91.00
2017-04-26T07:03:08.012Z,91.70
2017-04-26T07:04:08.273Z,91.70
2017-04-26T07:05:07.749Z,91.50
2017-04-26T07:06:07.259Z,91.30
2017-04-26T07:07:06.727Z,91.20
2017-04-26T07:08:06.180Z,91.30
2017-04-26T07:09:06.656Z,91.10
2017-04-26T07:10:06.125Z,90.90
2017-04-26T07:11:05.563Z,90.90
2017-04-26T07:12:05.133Z,90.60
2017-04-26T07:13:04.887Z,90.40
2017-04-26T07:14:04.377Z,90.10
2017-04-26T07:15:03.963Z,89.90
2017-04-26T07:16:03.378Z,90.10
2017-04-26T07:17:02.826Z,90.20
2017-04-26T07:18:02.260Z,90.20
2017-04-26T07:19:01.823Z,90.20
2017-04-26T07:20:01.288Z,89.90
2017-04-26T07:21:00.753Z,89.90
2017-04-26T07:22:00.243Z,89.70
2017-04-26T07:22:59.783Z,89.40
2017-04-26T07:23:59.221Z,89.60
2017-04-26T07:24:58.868Z,89.30
2017-04-26T07:25:58.287Z,89.50
2017-04-26T07:26:57.740Z,88.10
2017-04-26T07:27:57.156Z,88.80
2017-04-26T07:28:56.641Z,88.50
2017-04-26T07:29:56.113Z,88.30
2017-04-26T07:30:55.619Z,88.30
2017-04-26T07:31:55.080Z,87.30
2017-04-26T07:32:54.568Z,87.10
2017-04-26T07:33:54.788Z,87.00
2017-04-26T07:34:54.242Z,86.70
2017-04-26T07:35:53.682Z,86.20
2017-04-26T07:36:53.175Z,86.20
2017-04-26T07:37:52.612Z,86.10
2017-04-26T07:38:52.081Z,85.90
2017-04-26T07:39:51.534Z,85.50
2017-04-26T07:40:51.732Z,85.60
2017-04-26T07:41:51.171Z,86.80
2017-04-26T07:42:50.856Z,85.90
2017-04-26T07:43:50.333Z,85.50
2017-04-26T07:44:50.538Z,84.60
2017-04-26T07:45:50.736Z,83.30
2017-04-26T07:46:50.220Z,82.50
2017-04-26T07:47:49.690Z,83.70
2017-04-26T07:48:49.556Z,83.20
2017-04-26T07:49:49.756Z,84.10
2017-04-26T07:50:49.931Z,84.50
2017-04-26T07:51:49.432Z,83.80
2017-04-26T07:52:48.869Z,83.00
2017-04-26T07:53:48.421Z,84.90
2017-04-26T07:54:48.171Z,82.40
2017-04-26T07:55:47.578Z,80.40
2017-04-26T07:56:47.070Z,77.70
2017-04-26T07:57:46.499Z,77.20
2017-04-26T07:58:46.685Z,77.40
2017-04-26T07:59:46.115Z,76.40
2017-04-26T08:00:45.783Z,76.70
2017-04-26T08:01:45.278Z,75.70
2017-04-26T08:02:44.790Z,75.60
2017-04-26T08:03:44.288Z,76.00
2017-04-26T08:04:43.728Z,75.40
2017-04-26T08:05:43.928Z,75.40
2017-04-26T08:06:44.664Z,74.40
2017-04-26T08:07:44.144Z,74.40
2017-04-26T08:08:44.335Z,73.80
2017-04-26T08:09:43.817Z,75.80
2017-04-26T08:10:43.253Z,74.70
2017-04-26T08:11:42.717Z,74.70
2017-04-26T08:12:42.452Z,76.20
2017-04-26T08:13:42.116Z,75.80
2017-04-26T08:14:41.575Z,74.30
2017-04-26T08:15:41.040Z,72.90
2017-04-26T08:16:40.544Z,73.70
2017-04-26T08:17:40.001Z,72.00
2017-04-26T08:18:39.869Z,71.10
2017-04-26T08:19:39.337Z,70.00
2017-04-26T08:20:38.768Z,69.00
2017-04-26T08:21:38.223Z,69.10
2017-04-26T08:22:37.668Z,68.60
2017-04-26T08:23:37.111Z,71.00
2017-04-26T08:24:36.636Z,70.20
2017-04-26T08:25:36.105Z,69.40
2017-04-26T08:26:35.604Z,70.60
2017-04-26T08:27:35.123Z,69.90
2017-04-26T08:28:34.592Z,70.00
2017-04-26T08:29:34.028Z,69.60
2017-04-26T08:30:33.866Z,69.10
2017-04-26T08:31:33.309Z,69.10
2017-04-26T08:32:32.807Z,69.00
2017-04-26T08:33:32.332Z,69.30
2017-04-26T08:34:39.028Z,69.10
2017-04-26T08:35:38.659Z,69.00
2017-04-26T08:36:38.099Z,69.50
2017-04-26T08:37:37.552Z,69.80
2017-04-26T08:38:37.060Z,69.90
2017-04-26T08:39:36.604Z,69.70
2017-04-26T08:40:36.084Z,69.80
2017-04-26T08:41:35.983Z,68.60
2017-04-26T08:42:35.435Z,68.10
2017-04-26T08:43:34.874Z,67.80
2017-04-26T08:44:34.332Z,66.40
2017-04-26T08:45:33.760Z,66.20
2017-04-26T08:46:33.187Z,66.50
2017-04-26T08:47:32.999Z,67.00
2017-04-26T08:48:32.440Z,67.90
2017-04-26T08:49:32.640Z,67.50
2017-04-26T08:50:32.805Z,67.60
2017-04-26T08:51:32.240Z,67.00
2017-04-26T08:52:32.438Z,67.10
2017-04-26T08:53:31.908Z,66.80
2017-04-26T08:54:31.348Z,66.50
2017-04-26T08:55:31.527Z,66.00
2017-04-26T08:56:30.967Z,66.10
2017-04-26T08:57:30.480Z,66.30
2017-04-26T08:58:30.371Z,66.10
2017-04-26T08:59:29.883Z,65.20
2017-04-26T09:00:35.964Z,65.50
2017-04-26T09:01:35.395Z,65.80
2017-04-26T09:02:35.608Z,66.00
2017-04-26T09:03:35.070Z,65.70
2017-04-26T09:04:34.589Z,66.40
2017-04-26T09:05:34.033Z,66.60
2017-04-26T09:06:33.491Z,65.70
2017-04-26T09:07:32.955Z,66.00
2017-04-26T09:08:32.420Z,65.60
2017-04-26T09:09:32.703Z,65.30
2017-04-26T09:10:32.152Z,65.60
2017-04-26T09:11:31.615Z,65.90
2017-04-26T09:12:31.071Z,65.70
2017-04-26T09:13:30.544Z,65.50
2017-04-26T09:14:30.101Z,65.60
2017-04-26T09:15:29.766Z,66.80
2017-04-26T09:16:29.199Z,66.70
2017-04-26T09:17:28.671Z,67.50
2017-04-26T09:18:28.141Z,68.20
2017-04-26T09:19:27.646Z,67.40
2017-04-26T09:20:27.113Z,67.60
2017-04-26T09:21:27.858Z,68.20
2017-04-26T09:22:27.300Z,67.60
2017-04-26T09:23:26.752Z,66.60
2017-04-26T09:24:26.227Z,66.30
2017-04-26T09:25:26.434Z,66.60
2017-04-26T09:26:26.704Z,67.40
2017-04-26T09:27:26.134Z,68.10
2017-04-26T09:28:25.557Z,68.90
2017-04-26T09:29:25.040Z,69.00
2017-04-26T09:30:24.541Z,69.40
2017-04-26T09:31:24.020Z,68.30
2017-04-26T09:32:24.448Z,68.40
2017-04-26T09:33:24.022Z,68.90
2017-04-26T09:34:24.199Z,69.30
2017-04-26T09:35:23.611Z,69.00
2017-04-26T09:36:23.047Z,68.00
2017-04-26T09:37:22.492Z,67.60
2017-04-26T09:38:21.990Z,65.00
2017-04-26T09:39:21.450Z,64.80
2017-04-26T09:40:20.980Z,63.90
2017-04-26T09:41:20.444Z,62.80
2017-04-26T09:42:19.898Z,62.30
2017-04-26T09:43:20.049Z,62.00
2017-04-26T09:44:19.822Z,63.60
2017-04-26T09:45:19.326Z,64.20
2017-04-26T09:46:18.841Z,64.10
2017-04-26T09:47:18.295Z,64.30
2017-04-26T09:48:18.509Z,63.90
2017-04-26T09:49:17.955Z,64.30
2017-04-26T09:50:17.431Z,65.50
2017-04-26T09:51:16.911Z,65.60
2017-04-26T09:52:16.345Z,64.50
2017-04-26T09:53:15.808Z,63.80
2017-04-26T09:54:15.290Z,62.70
2017-04-26T09:55:14.725Z,63.30
2017-04-26T09:56:14.343Z,64.70
2017-04-26T09:57:13.795Z,63.40
2017-04-26T09:58:13.229Z,63.50
2017-04-26T09:59:12.693Z,62.90
2017-04-26T10:00:12.160Z,62.40
2017-04-26T10:01:11.618Z,62.50
2017-04-26T10:02:12.041Z,63.20
2017-04-26T10:03:12.284Z,64.10
2017-04-26T10:04:11.735Z,63.70
2017-04-26T10:05:11.930Z,64.10
2017-04-26T10:06:11.420Z,62.30
2017-04-26T10:07:10.870Z,62.40
2017-04-26T10:08:10.511Z,61.90
2017-04-26T10:09:10.685Z,61.80
2017-04-26T10:10:10.136Z,61.20
2017-04-26T10:11:10.315Z,61.20
2017-04-26T10:12:09.757Z,60.50
2017-04-26T10:13:09.221Z,59.80
2017-04-26T10:14:08.958Z,59.20
2017-04-26T10:15:08.478Z,58.80
2017-04-26T10:16:07.935Z,59.10
2017-04-26T10:17:07.749Z,58.80
2017-04-26T10:18:07.293Z,57.90
2017-04-26T10:19:06.776Z,58.00
2017-04-26T10:20:06.299Z,57.70
2017-04-26T10:21:05.746Z,57.70
2017-04-26T10:22:05.481Z,58.30
2017-04-26T10:24:04.650Z,60.10
2017-04-26T10:25:04.106Z,62.40
2017-04-26T10:26:04.351Z,63.70
2017-04-26T10:27:03.874Z,64.30
2017-04-26T10:28:03.371Z,64.80
2017-04-26T10:29:02.840Z,65.80
2017-04-26T10:30:02.301Z,65.40
2017-04-26T10:31:02.486Z,65.60
2017-04-26T10:32:03.040Z,65.30
2017-04-26T10:33:02.482Z,66.50
2017-04-26T10:34:02.332Z,67.50
2017-04-26T10:35:01.470Z,68.80
2017-04-26T10:36:01.069Z,69.10
2017-04-26T10:37:00.408Z,69.40
2017-04-26T10:38:00.067Z,68.70
2017-04-26T10:38:59.538Z,68.30
2017-04-26T10:39:59.029Z,68.60
2017-04-26T10:40:58.491Z,68.80
2017-04-26T10:41:57.952Z,69.00
2017-04-26T10:42:57.401Z,69.20
2017-04-26T10:43:56.913Z,69.40
2017-04-26T10:44:56.347Z,69.10
2017-04-26T10:45:55.820Z,69.00
2017-04-26T10:46:55.308Z,68.40
2017-04-26T10:47:54.801Z,68.40
2017-04-26T10:48:54.245Z,68.20
2017-04-26T10:49:53.944Z,68.60
2017-04-26T10:50:53.357Z,69.40
2017-04-26T10:51:52.855Z,68.50
2017-04-26T10:52:52.301Z,68.40
2017-04-26T10:53:52.523Z,67.90
2017-04-26T10:54:52.733Z,67.10
2017-04-26T10:55:52.239Z,66.70
2017-04-26T10:56:52.115Z,66.50
2017-04-26T10:57:51.647Z,67.10
2017-04-26T10:58:51.901Z,66.10
2017-04-26T10:59:51.389Z,65.90
2017-04-26T11:00:50.852Z,65.70
2017-04-26T11:01:50.376Z,65.50
2017-04-26T11:02:49.821Z,66.10
2017-04-26T11:03:49.319Z,65.10
2017-04-26T11:04:48.796Z,65.50
2017-04-26T11:05:49.002Z,64.10
2017-04-26T11:06:48.507Z,62.80
2017-04-26T11:07:48.036Z,62.80
2017-04-26T11:08:47.464Z,62.60
2017-04-26T11:09:46.952Z,62.10
2017-04-26T11:10:46.388Z,61.20
2017-04-26T11:11:46.548Z,61.40
2017-04-26T11:12:45.993Z,61.90
2017-04-26T11:13:46.625Z,61.90
2017-04-26T11:14:46.104Z,62.50
2017-04-26T11:15:46.372Z,63.50
2017-04-26T11:16:45.852Z,63.80
2017-04-26T11:17:45.295Z,64.10
2017-04-26T11:18:44.769Z,63.50
2017-04-26T11:19:44.284Z,63.00
2017-04-26T11:20:43.800Z,63.30
2017-04-26T11:21:43.984Z,63.70
2017-04-26T11:22:43.478Z,64.10
2017-04-26T11:23:42.986Z,65.80
2017-04-26T11:24:43.177Z,66.20
2017-04-26T11:25:42.913Z,67.30
2017-04-26T11:26:42.381Z,68.30
2017-04-26T11:27:42.587Z,68.50
2017-04-26T11:28:42.045Z,69.10
2017-04-26T11:29:41.545Z,70.40
2017-04-26T11:30:41.126Z,71.50
2017-04-26T11:31:40.907Z,72.30
2017-04-26T11:32:40.368Z,72.60
2017-04-26T11:33:39.826Z,72.90
2017-04-26T11:34:39.276Z,73.30
2017-04-26T11:35:39.720Z,73.50
2017-04-26T11:36:39.201Z,73.70
2017-04-26T11:37:39.000Z,73.70
2017-04-26T11:38:38.440Z,73.50
2017-04-26T11:39:37.878Z,73.90
2017-04-26T11:40:37.324Z,73.10
2017-04-26T11:41:36.794Z,73.50
2017-04-26T11:42:36.254Z,73.70
2017-04-26T11:43:36.530Z,74.40
2017-04-26T11:44:36.555Z,73.90
2017-04-26T11:45:36.201Z,73.20
2017-04-26T11:46:35.783Z,73.00
2017-04-26T11:47:35.351Z,73.40
2017-04-26T11:48:34.888Z,73.80
2017-04-26T11:49:34.553Z,74.20
2017-04-26T11:50:34.774Z,74.10
2017-04-26T11:51:34.984Z,74.10
2017-04-26T11:52:35.589Z,74.90
2017-04-26T11:53:35.201Z,76.80
2017-04-26T11:54:35.737Z,81.10
2017-04-26T11:55:35.218Z,84.20
2017-04-26T11:56:34.711Z,84.70
2017-04-26T11:57:34.915Z,84.80
2017-04-26T11:58:34.466Z,85.20
2017-04-26T11:59:33.910Z,86.20
2017-04-26T12:00:33.538Z,85.70
2017-04-26T12:01:33.019Z,83.60
2017-04-26T12:02:32.460Z,82.20
2017-04-26T12:03:33.099Z,82.20
2017-04-26T12:04:32.615Z,82.30
2017-04-26T12:05:33.099Z,82.60
2017-04-26T12:06:32.626Z,81.70
2017-04-26T12:07:32.825Z,81.70
2017-04-26T12:08:32.311Z,81.50
2017-04-26T12:09:31.739Z,81.10
2017-04-26T12:10:31.241Z,80.30
2017-04-26T12:11:30.764Z,79.20
2017-04-26T12:12:30.232Z,77.50
2017-04-26T12:13:29.708Z,75.90
2017-04-26T12:14:29.924Z,74.90
2017-04-26T12:15:30.155Z,73.50
2017-04-26T12:16:29.649Z,72.30
2017-04-26T12:17:29.263Z,71.90
2017-04-26T12:18:28.729Z,72.40
2017-04-26T12:19:28.157Z,72.70
2017-04-26T12:20:27.676Z,73.10
2017-04-26T12:21:27.156Z,73.20
2017-04-26T12:22:26.617Z,73.10
2017-04-26T12:23:26.297Z,73.40
2017-04-26T12:24:25.761Z,73.60
2017-04-26T12:25:25.965Z,73.60
2017-04-26T12:26:25.419Z,74.20
2017-04-26T12:27:24.862Z,73.70
2017-04-26T12:28:24.328Z,74.30
2017-04-26T12:29:24.093Z,74.50
2017-04-26T12:30:23.812Z,75.40
2017-04-26T12:31:23.250Z,76.20
2017-04-26T12:32:22.688Z,76.60
2017-04-26T12:33:22.132Z,76.00
2017-04-26T12:34:22.565Z,76.70
2017-04-26T12:35:23.091Z,76.50
2017-04-26T12:36:23.325Z,75.20
2017-04-26T12:37:22.779Z,75.10
2017-04-26T12:38:22.225Z,73.10
2017-04-26T12:39:21.787Z,72.90
2017-04-26T12:40:22.093Z,72.50
2017-04-26T12:41:21.573Z,70.70
2017-04-26T12:42:21.055Z,69.80
2017-04-26T12:43:20.541Z,69.60
2017-04-26T12:44:20.765Z,69.10
2017-04-26T12:45:20.228Z,69.50
2017-04-26T12:46:20.034Z,69.20
2017-04-26T12:47:19.537Z,68.20
2017-04-26T12:48:18.998Z,68.50
2017-04-26T12:49:18.420Z,69.90
2017-04-26T12:50:17.875Z,68.90
2017-04-26T12:51:18.082Z,69.00
2017-04-26T12:52:18.376Z,68.90
2017-04-26T12:53:17.817Z,68.90
2017-04-26T12:54:17.284Z,68.70
2017-04-26T12:55:17.542Z,69.00
2017-04-26T12:56:17.072Z,69.20
2017-04-26T12:57:16.527Z,69.40
2017-04-26T12:58:16.311Z,69.40
2017-04-26T12:59:15.791Z,69.80
2017-04-26T13:00:15.284Z,68.80
2017-04-26T13:01:15.480Z,68.60
2017-04-26T13:02:15.676Z,68.00